sensor_id;sensor_type;location;lat;lon;timestamp;P1;durP1;ratioP1;P2;durP2;ratioP2
76296;SDS011;65104;52.994;6.552;2023-06-14T00:00:11;2.05;;;1.17;;
76296;SDS011;65104;52.994;6.552;2023-06-14T00:02:38;2.55;;;1.20;;
76296;SDS011;65104;52.994;6.552;2023-06-14T00:09:59;2.83;;;1.02;;
76296;SDS011;65104;52.994;6.552;2023-06-14T00:12:25;1.52;;;1.08;;
76296;SDS011;65104;52.994;6.552;2023-06-14T00:14:50;3.35;;;1.48;;
76296;SDS011;65104;52.994;6.552;2023-06-14T00:17:16;4.75;;;1.42;;
76296;SDS011;65104;52.994;6.552;2023-06-14T00:19:41;3.33;;;1.17;;
76296;SDS011;65104;52.994;6.552;2023-06-14T00:22:07;1.88;;;1.10;;
76296;SDS011;65104;52.994;6.552;2023-06-14T00:24:32;2.05;;;1.50;;
76296;SDS011;65104;52.994;6.552;2023-06-14T00:26:57;3.88;;;1.40;;
76296;SDS011;65104;52.994;6.552;2023-06-14T00:29:23;2.20;;;1.65;;
76296;SDS011;65104;52.994;6.552;2023-06-14T00:31:48;2.67;;;1.38;;
76296;SDS011;65104;52.994;6.552;2023-06-14T00:34:13;2.92;;;1.33;;
76296;SDS011;65104;52.994;6.552;2023-06-14T00:36:39;1.50;;;1.20;;
76296;SDS011;65104;52.994;6.552;2023-06-14T00:39:04;7.00;;;1.30;;
76296;SDS011;65104;52.994;6.552;2023-06-14T00:41:30;3.03;;;1.35;;
76296;SDS011;65104;52.994;6.552;2023-06-14T00:43:55;2.72;;;1.10;;
76296;SDS011;65104;52.994;6.552;2023-06-14T00:46:21;1.50;;;1.13;;
76296;SDS011;65104;52.994;6.552;2023-06-14T00:48:47;2.72;;;1.35;;
76296;SDS011;65104;52.994;6.552;2023-06-14T00:51:13;1.70;;;1.33;;
76296;SDS011;65104;52.994;6.552;2023-06-14T00:53:39;0.82;;;0.80;;
76296;SDS011;65104;52.994;6.552;2023-06-14T00:56:05;1.35;;;1.10;;
76296;SDS011;65104;52.994;6.552;2023-06-14T00:58:31;1.63;;;1.15;;
76296;SDS011;65104;52.994;6.552;2023-06-14T01:00:57;1.48;;;1.25;;
76296;SDS011;65104;52.994;6.552;2023-06-14T01:03:23;2.25;;;1.10;;
76296;SDS011;65104;52.994;6.552;2023-06-14T01:05:53;1.88;;;1.05;;
76296;SDS011;65104;52.994;6.552;2023-06-14T01:08:31;1.30;;;1.10;;
76296;SDS011;65104;52.994;6.552;2023-06-14T01:11:12;1.30;;;1.17;;
76296;SDS011;65104;52.994;6.552;2023-06-14T01:13:45;2.90;;;1.30;;
76296;SDS011;65104;52.994;6.552;2023-06-14T01:16:11;1.20;;;1.10;;
76296;SDS011;65104;52.994;6.552;2023-06-14T01:18:37;1.73;;;1.25;;
76296;SDS011;65104;52.994;6.552;2023-06-14T01:21:02;1.17;;;1.05;;
76296;SDS011;65104;52.994;6.552;2023-06-14T01:23:31;1.27;;;1.13;;
76296;SDS011;65104;52.994;6.552;2023-06-14T01:25:58;2.97;;;1.73;;
76296;SDS011;65104;52.994;6.552;2023-06-14T01:28:25;1.30;;;0.93;;
76296;SDS011;65104;52.994;6.552;2023-06-14T01:30:56;4.05;;;1.50;;
76296;SDS011;65104;52.994;6.552;2023-06-14T01:33:28;3.13;;;1.25;;
76296;SDS011;65104;52.994;6.552;2023-06-14T01:35:54;1.80;;;1.17;;
76296;SDS011;65104;52.994;6.552;2023-06-14T01:38:24;1.80;;;1.45;;
76296;SDS011;65104;52.994;6.552;2023-06-14T01:40:51;1.92;;;1.00;;
76296;SDS011;65104;52.994;6.552;2023-06-14T01:43:19;2.00;;;1.70;;
76296;SDS011;65104;52.994;6.552;2023-06-14T01:45:45;2.42;;;1.50;;
76296;SDS011;65104;52.994;6.552;2023-06-14T01:48:13;2.17;;;1.33;;
76296;SDS011;65104;52.994;6.552;2023-06-14T01:50:39;2.80;;;1.40;;
76296;SDS011;65104;52.994;6.552;2023-06-14T01:53:07;3.67;;;1.52;;
76296;SDS011;65104;52.994;6.552;2023-06-14T01:55:33;2.03;;;1.30;;
76296;SDS011;65104;52.994;6.552;2023-06-14T01:58:02;1.67;;;1.38;;
76296;SDS011;65104;52.994;6.552;2023-06-14T02:00:28;3.60;;;1.70;;
76296;SDS011;65104;52.994;6.552;2023-06-14T02:02:54;2.67;;;1.38;;
76296;SDS011;65104;52.994;6.552;2023-06-14T02:05:20;1.80;;;1.30;;
76296;SDS011;65104;52.994;6.552;2023-06-14T02:07:46;3.17;;;1.55;;
76296;SDS011;65104;52.994;6.552;2023-06-14T02:10:12;2.08;;;1.25;;
76296;SDS011;65104;52.994;6.552;2023-06-14T02:12:38;2.42;;;1.55;;
76296;SDS011;65104;52.994;6.552;2023-06-14T02:15:03;2.92;;;1.33;;
76296;SDS011;65104;52.994;6.552;2023-06-14T02:17:29;2.83;;;1.20;;
76296;SDS011;65104;52.994;6.552;2023-06-14T02:19:55;2.17;;;1.33;;
76296;SDS011;65104;52.994;6.552;2023-06-14T02:22:22;3.13;;;1.98;;
76296;SDS011;65104;52.994;6.552;2023-06-14T02:24:47;2.28;;;1.27;;
76296;SDS011;65104;52.994;6.552;2023-06-14T02:27:13;2.35;;;1.52;;
76296;SDS011;65104;52.994;6.552;2023-06-14T02:29:38;2.88;;;1.15;;
76296;SDS011;65104;52.994;6.552;2023-06-14T02:32:04;2.65;;;1.35;;
76296;SDS011;65104;52.994;6.552;2023-06-14T02:34:32;1.20;;;1.10;;
76296;SDS011;65104;52.994;6.552;2023-06-14T02:36:58;3.85;;;1.48;;
76296;SDS011;65104;52.994;6.552;2023-06-14T02:39:23;1.90;;;1.10;;
76296;SDS011;65104;52.994;6.552;2023-06-14T02:41:49;1.33;;;1.23;;
76296;SDS011;65104;52.994;6.552;2023-06-14T02:44:17;4.82;;;1.85;;
76296;SDS011;65104;52.994;6.552;2023-06-14T02:46:44;2.03;;;1.50;;
76296;SDS011;65104;52.994;6.552;2023-06-14T02:49:10;2.25;;;1.25;;
76296;SDS011;65104;52.994;6.552;2023-06-14T02:51:36;3.58;;;1.50;;
76296;SDS011;65104;52.994;6.552;2023-06-14T02:54:01;1.35;;;1.25;;
76296;SDS011;65104;52.994;6.552;2023-06-14T02:56:27;2.53;;;1.23;;
76296;SDS011;65104;52.994;6.552;2023-06-14T02:58:53;2.58;;;1.50;;
76296;SDS011;65104;52.994;6.552;2023-06-14T03:01:18;3.83;;;2.03;;
76296;SDS011;65104;52.994;6.552;2023-06-14T03:03:45;2.83;;;1.20;;
76296;SDS011;65104;52.994;6.552;2023-06-14T03:06:11;2.05;;;1.10;;
76296;SDS011;65104;52.994;6.552;2023-06-14T03:08:39;3.88;;;1.70;;
76296;SDS011;65104;52.994;6.552;2023-06-14T03:11:06;2.22;;;1.30;;
76296;SDS011;65104;52.994;6.552;2023-06-14T03:13:32;1.80;;;1.50;;
76296;SDS011;65104;52.994;6.552;2023-06-14T03:15:58;3.58;;;1.70;;
76296;SDS011;65104;52.994;6.552;2023-06-14T03:18:27;2.17;;;1.38;;
76296;SDS011;65104;52.994;6.552;2023-06-14T03:20:54;3.92;;;1.80;;
76296;SDS011;65104;52.994;6.552;2023-06-14T03:23:21;2.25;;;1.65;;
76296;SDS011;65104;52.994;6.552;2023-06-14T03:25:47;5.13;;;1.90;;
76296;SDS011;65104;52.994;6.552;2023-06-14T03:28:13;1.63;;;1.35;;
76296;SDS011;65104;52.994;6.552;2023-06-14T03:30:40;2.72;;;1.55;;
76296;SDS011;65104;52.994;6.552;2023-06-14T03:33:07;1.83;;;1.60;;
76296;SDS011;65104;52.994;6.552;2023-06-14T03:35:33;4.10;;;1.42;;
76296;SDS011;65104;52.994;6.552;2023-06-14T03:37:58;1.33;;;1.15;;
76296;SDS011;65104;52.994;6.552;2023-06-14T03:40:24;3.13;;;1.42;;
76296;SDS011;65104;52.994;6.552;2023-06-14T03:42:53;3.30;;;1.60;;
76296;SDS011;65104;52.994;6.552;2023-06-14T03:45:19;1.90;;;1.42;;
76296;SDS011;65104;52.994;6.552;2023-06-14T03:47:44;3.63;;;1.77;;
76296;SDS011;65104;52.994;6.552;2023-06-14T03:50:10;2.78;;;1.45;;
76296;SDS011;65104;52.994;6.552;2023-06-14T03:52:36;3.53;;;1.40;;
76296;SDS011;65104;52.994;6.552;2023-06-14T03:55:01;3.22;;;1.85;;
76296;SDS011;65104;52.994;6.552;2023-06-14T03:57:27;3.10;;;1.73;;
76296;SDS011;65104;52.994;6.552;2023-06-14T03:59:54;1.83;;;1.63;;
76296;SDS011;65104;52.994;6.552;2023-06-14T04:02:19;3.15;;;1.70;;
76296;SDS011;65104;52.994;6.552;2023-06-14T04:04:45;2.97;;;1.77;;
76296;SDS011;65104;52.994;6.552;2023-06-14T04:07:11;3.60;;;1.63;;
76296;SDS011;65104;52.994;6.552;2023-06-14T04:09:37;4.07;;;1.65;;
76296;SDS011;65104;52.994;6.552;2023-06-14T04:12:05;2.38;;;1.63;;
76296;SDS011;65104;52.994;6.552;2023-06-14T04:14:31;3.08;;;2.28;;
76296;SDS011;65104;52.994;6.552;2023-06-14T04:16:58;2.10;;;1.70;;
76296;SDS011;65104;52.994;6.552;2023-06-14T04:19:23;2.85;;;2.40;;
76296;SDS011;65104;52.994;6.552;2023-06-14T04:21:48;2.05;;;1.65;;
76296;SDS011;65104;52.994;6.552;2023-06-14T04:24:14;2.35;;;1.58;;
76296;SDS011;65104;52.994;6.552;2023-06-14T04:26:40;6.32;;;1.88;;
76296;SDS011;65104;52.994;6.552;2023-06-14T04:29:09;2.13;;;1.40;;
76296;SDS011;65104;52.994;6.552;2023-06-14T04:31:39;3.55;;;1.80;;
76296;SDS011;65104;52.994;6.552;2023-06-14T04:34:05;3.45;;;1.95;;
76296;SDS011;65104;52.994;6.552;2023-06-14T04:36:31;3.33;;;1.95;;
76296;SDS011;65104;52.994;6.552;2023-06-14T04:39:02;2.58;;;1.40;;
76296;SDS011;65104;52.994;6.552;2023-06-14T04:41:28;2.53;;;1.75;;
76296;SDS011;65104;52.994;6.552;2023-06-14T04:46:27;2.10;;;1.35;;
76296;SDS011;65104;52.994;6.552;2023-06-14T04:48:53;2.05;;;1.52;;
76296;SDS011;65104;52.994;6.552;2023-06-14T04:51:19;3.58;;;2.03;;
76296;SDS011;65104;52.994;6.552;2023-06-14T04:53:47;2.90;;;1.52;;
76296;SDS011;65104;52.994;6.552;2023-06-14T04:58:39;3.33;;;2.58;;
76296;SDS011;65104;52.994;6.552;2023-06-14T05:01:05;2.00;;;1.63;;
76296;SDS011;65104;52.994;6.552;2023-06-14T05:03:33;4.63;;;1.83;;
76296;SDS011;65104;52.994;6.552;2023-06-14T05:05:59;3.15;;;1.60;;
76296;SDS011;65104;52.994;6.552;2023-06-14T05:08:25;2.25;;;1.92;;
76296;SDS011;65104;52.994;6.552;2023-06-14T05:10:51;2.33;;;2.05;;
76296;SDS011;65104;52.994;6.552;2023-06-14T05:13:17;3.35;;;1.90;;
76296;SDS011;65104;52.994;6.552;2023-06-14T05:15:43;1.60;;;1.50;;
76296;SDS011;65104;52.994;6.552;2023-06-14T05:18:08;2.05;;;1.60;;
76296;SDS011;65104;52.994;6.552;2023-06-14T05:20:34;3.10;;;2.00;;
76296;SDS011;65104;52.994;6.552;2023-06-14T05:25:27;3.50;;;2.60;;
76296;SDS011;65104;52.994;6.552;2023-06-14T05:27:53;2.50;;;1.95;;
76296;SDS011;65104;52.994;6.552;2023-06-14T05:30:18;3.97;;;2.08;;
76296;SDS011;65104;52.994;6.552;2023-06-14T05:32:44;2.53;;;2.10;;
76296;SDS011;65104;52.994;6.552;2023-06-14T05:35:09;2.95;;;2.42;;
76296;SDS011;65104;52.994;6.552;2023-06-14T05:37:35;1.90;;;1.75;;
76296;SDS011;65104;52.994;6.552;2023-06-14T05:40:01;3.92;;;2.10;;
76296;SDS011;65104;52.994;6.552;2023-06-14T05:42:30;2.33;;;1.98;;
76296;SDS011;65104;52.994;6.552;2023-06-14T05:44:55;4.28;;;2.40;;
76296;SDS011;65104;52.994;6.552;2023-06-14T05:47:23;3.28;;;2.33;;
76296;SDS011;65104;52.994;6.552;2023-06-14T05:49:49;2.83;;;1.90;;
76296;SDS011;65104;52.994;6.552;2023-06-14T05:52:17;2.75;;;2.33;;
76296;SDS011;65104;52.994;6.552;2023-06-14T05:54:42;4.32;;;2.30;;
76296;SDS011;65104;52.994;6.552;2023-06-14T05:57:10;2.05;;;1.85;;
76296;SDS011;65104;52.994;6.552;2023-06-14T05:59:36;4.40;;;2.33;;
76296;SDS011;65104;52.994;6.552;2023-06-14T06:02:01;3.33;;;2.28;;
76296;SDS011;65104;52.994;6.552;2023-06-14T06:04:26;2.80;;;2.60;;
76296;SDS011;65104;52.994;6.552;2023-06-14T06:06:52;4.03;;;2.03;;
76296;SDS011;65104;52.994;6.552;2023-06-14T06:09:17;4.35;;;1.92;;
76296;SDS011;65104;52.994;6.552;2023-06-14T06:11:44;3.33;;;2.38;;
76296;SDS011;65104;52.994;6.552;2023-06-14T06:14:12;2.53;;;1.90;;
76296;SDS011;65104;52.994;6.552;2023-06-14T06:16:37;2.83;;;1.75;;
76296;SDS011;65104;52.994;6.552;2023-06-14T06:19:05;2.80;;;1.63;;
76296;SDS011;65104;52.994;6.552;2023-06-14T06:21:31;4.45;;;1.90;;
76296;SDS011;65104;52.994;6.552;2023-06-14T06:23:56;2.47;;;1.83;;
76296;SDS011;65104;52.994;6.552;2023-06-14T06:26:28;2.63;;;1.80;;
76296;SDS011;65104;52.994;6.552;2023-06-14T06:28:54;2.42;;;1.80;;
76296;SDS011;65104;52.994;6.552;2023-06-14T06:31:23;3.10;;;1.77;;
76296;SDS011;65104;52.994;6.552;2023-06-14T06:33:49;2.40;;;1.85;;
76296;SDS011;65104;52.994;6.552;2023-06-14T06:36:19;6.20;;;2.22;;
76296;SDS011;65104;52.994;6.552;2023-06-14T06:38:46;2.80;;;2.13;;
76296;SDS011;65104;52.994;6.552;2023-06-14T06:41:12;3.30;;;1.70;;
76296;SDS011;65104;52.994;6.552;2023-06-14T06:43:37;2.53;;;2.13;;
76296;SDS011;65104;52.994;6.552;2023-06-14T06:46:03;3.10;;;1.58;;
76296;SDS011;65104;52.994;6.552;2023-06-14T06:48:28;2.58;;;1.88;;
76296;SDS011;65104;52.994;6.552;2023-06-14T06:50:54;2.30;;;1.60;;
76296;SDS011;65104;52.994;6.552;2023-06-14T06:53:20;2.10;;;1.75;;
76296;SDS011;65104;52.994;6.552;2023-06-14T06:55:47;4.50;;;1.98;;
76296;SDS011;65104;52.994;6.552;2023-06-14T06:58:13;2.75;;;1.52;;
76296;SDS011;65104;52.994;6.552;2023-06-14T07:00:41;2.60;;;1.77;;
76296;SDS011;65104;52.994;6.552;2023-06-14T07:03:07;1.45;;;1.35;;
76296;SDS011;65104;52.994;6.552;2023-06-14T07:05:33;1.40;;;1.30;;
76296;SDS011;65104;52.994;6.552;2023-06-14T07:07:58;2.13;;;1.73;;
76296;SDS011;65104;52.994;6.552;2023-06-14T07:10:24;1.77;;;1.40;;
76296;SDS011;65104;52.994;6.552;2023-06-14T07:12:52;1.95;;;1.58;;
76296;SDS011;65104;52.994;6.552;2023-06-14T07:15:17;2.58;;;1.67;;
76296;SDS011;65104;52.994;6.552;2023-06-14T07:17:43;2.90;;;1.40;;
76296;SDS011;65104;52.994;6.552;2023-06-14T07:20:08;4.80;;;1.50;;
76296;SDS011;65104;52.994;6.552;2023-06-14T07:22:38;2.38;;;2.00;;
76296;SDS011;65104;52.994;6.552;2023-06-14T07:25:10;2.95;;;1.67;;
76296;SDS011;65104;52.994;6.552;2023-06-14T07:27:40;1.88;;;1.60;;
76296;SDS011;65104;52.994;6.552;2023-06-14T07:30:06;2.30;;;1.70;;
76296;SDS011;65104;52.994;6.552;2023-06-14T07:32:32;3.25;;;1.80;;
76296;SDS011;65104;52.994;6.552;2023-06-14T07:34:58;3.15;;;1.63;;
76296;SDS011;65104;52.994;6.552;2023-06-14T07:37:23;1.80;;;1.52;;
76296;SDS011;65104;52.994;6.552;2023-06-14T07:39:48;2.53;;;1.60;;
76296;SDS011;65104;52.994;6.552;2023-06-14T07:42:14;3.03;;;1.40;;
76296;SDS011;65104;52.994;6.552;2023-06-14T07:44:39;4.43;;;1.55;;
76296;SDS011;65104;52.994;6.552;2023-06-14T07:47:05;1.83;;;1.63;;
76296;SDS011;65104;52.994;6.552;2023-06-14T07:49:30;2.05;;;1.67;;
76296;SDS011;65104;52.994;6.552;2023-06-14T07:51:56;3.00;;;1.67;;
76296;SDS011;65104;52.994;6.552;2023-06-14T07:54:21;2.00;;;1.20;;
76296;SDS011;65104;52.994;6.552;2023-06-14T07:56:50;2.88;;;1.50;;
76296;SDS011;65104;52.994;6.552;2023-06-14T07:59:16;2.60;;;1.75;;
76296;SDS011;65104;52.994;6.552;2023-06-14T08:04:14;1.73;;;1.60;;
76296;SDS011;65104;52.994;6.552;2023-06-14T08:06:43;2.50;;;1.85;;
76296;SDS011;65104;52.994;6.552;2023-06-14T08:09:10;3.50;;;1.60;;
76296;SDS011;65104;52.994;6.552;2023-06-14T08:11:36;2.70;;;1.45;;
76296;SDS011;65104;52.994;6.552;2023-06-14T08:14:04;3.10;;;1.50;;
76296;SDS011;65104;52.994;6.552;2023-06-14T08:16:30;2.60;;;1.58;;
76296;SDS011;65104;52.994;6.552;2023-06-14T08:18:55;2.53;;;1.45;;
76296;SDS011;65104;52.994;6.552;2023-06-14T08:21:21;4.03;;;1.58;;
76296;SDS011;65104;52.994;6.552;2023-06-14T08:26:31;2.95;;;1.70;;
76296;SDS011;65104;52.994;6.552;2023-06-14T08:28:59;1.85;;;1.52;;
76296;SDS011;65104;52.994;6.552;2023-06-14T08:31:25;1.83;;;1.48;;
76296;SDS011;65104;52.994;6.552;2023-06-14T08:33:50;2.25;;;1.60;;
76296;SDS011;65104;52.994;6.552;2023-06-14T08:36:16;2.20;;;1.60;;
76296;SDS011;65104;52.994;6.552;2023-06-14T08:38:41;2.13;;;1.58;;
76296;SDS011;65104;52.994;6.552;2023-06-14T08:41:06;3.38;;;2.22;;
76296;SDS011;65104;52.994;6.552;2023-06-14T08:43:33;2.47;;;1.50;;
76296;SDS011;65104;52.994;6.552;2023-06-14T08:46:00;1.75;;;1.60;;
76296;SDS011;65104;52.994;6.552;2023-06-14T08:48:28;1.80;;;1.35;;
76296;SDS011;65104;52.994;6.552;2023-06-14T08:50:54;2.65;;;1.60;;
76296;SDS011;65104;52.994;6.552;2023-06-14T08:53:26;2.22;;;1.50;;
76296;SDS011;65104;52.994;6.552;2023-06-14T08:55:53;4.25;;;1.30;;
76296;SDS011;65104;52.994;6.552;2023-06-14T08:58:20;1.80;;;1.40;;
76296;SDS011;65104;52.994;6.552;2023-06-14T09:00:49;3.42;;;1.88;;
76296;SDS011;65104;52.994;6.552;2023-06-14T09:03:17;2.80;;;1.40;;
76296;SDS011;65104;52.994;6.552;2023-06-14T09:05:45;3.08;;;1.80;;
76296;SDS011;65104;52.994;6.552;2023-06-14T09:08:11;1.67;;;1.48;;
76296;SDS011;65104;52.994;6.552;2023-06-14T09:10:37;1.52;;;1.42;;
76296;SDS011;65104;52.994;6.552;2023-06-14T09:13:05;2.50;;;1.58;;
76296;SDS011;65104;52.994;6.552;2023-06-14T09:15:30;1.80;;;1.38;;
76296;SDS011;65104;52.994;6.552;2023-06-14T09:17:56;2.33;;;1.65;;
76296;SDS011;65104;52.994;6.552;2023-06-14T09:20:23;1.45;;;1.35;;
76296;SDS011;65104;52.994;6.552;2023-06-14T09:22:49;1.83;;;1.35;;
76296;SDS011;65104;52.994;6.552;2023-06-14T09:25:15;3.15;;;1.70;;
76296;SDS011;65104;52.994;6.552;2023-06-14T09:27:41;1.98;;;1.25;;
76296;SDS011;65104;52.994;6.552;2023-06-14T09:30:08;2.58;;;1.45;;
76296;SDS011;65104;52.994;6.552;2023-06-14T09:32:37;1.38;;;1.27;;
76296;SDS011;65104;52.994;6.552;2023-06-14T09:35:07;2.67;;;1.23;;
76296;SDS011;65104;52.994;6.552;2023-06-14T09:37:33;2.63;;;1.83;;
76296;SDS011;65104;52.994;6.552;2023-06-14T09:39:59;2.22;;;1.33;;
76296;SDS011;65104;52.994;6.552;2023-06-14T09:42:24;2.33;;;1.30;;
76296;SDS011;65104;52.994;6.552;2023-06-14T09:44:55;1.77;;;1.55;;
76296;SDS011;65104;52.994;6.552;2023-06-14T09:47:21;1.23;;;1.13;;
76296;SDS011;65104;52.994;6.552;2023-06-14T09:49:48;1.90;;;1.40;;
76296;SDS011;65104;52.994;6.552;2023-06-14T09:52:17;1.90;;;1.10;;
76296;SDS011;65104;52.994;6.552;2023-06-14T09:54:44;2.63;;;1.30;;
76296;SDS011;65104;52.994;6.552;2023-06-14T09:57:23;1.65;;;1.50;;
76296;SDS011;65104;52.994;6.552;2023-06-14T09:59:56;2.63;;;1.42;;
76296;SDS011;65104;52.994;6.552;2023-06-14T10:02:26;1.55;;;1.30;;
76296;SDS011;65104;52.994;6.552;2023-06-14T10:10:20;1.48;;;1.15;;
76296;SDS011;65104;52.994;6.552;2023-06-14T10:12:46;2.42;;;1.40;;
76296;SDS011;65104;52.994;6.552;2023-06-14T10:15:15;1.63;;;1.25;;
76296;SDS011;65104;52.994;6.552;2023-06-14T10:20:30;1.33;;;1.23;;
76296;SDS011;65104;52.994;6.552;2023-06-14T10:25:30;1.17;;;1.08;;
76296;SDS011;65104;52.994;6.552;2023-06-14T10:33:32;1.20;;;1.00;;
76296;SDS011;65104;52.994;6.552;2023-06-14T10:39:05;3.20;;;1.02;;
76296;SDS011;65104;52.994;6.552;2023-06-14T10:41:42;1.10;;;0.90;;
76296;SDS011;65104;52.994;6.552;2023-06-14T10:46:54;1.17;;;1.00;;
76296;SDS011;65104;52.994;6.552;2023-06-14T10:49:36;1.38;;;1.25;;
76296;SDS011;65104;52.994;6.552;2023-06-14T10:52:08;0.85;;;0.85;;
76296;SDS011;65104;52.994;6.552;2023-06-14T10:57:34;1.40;;;1.00;;
76296;SDS011;65104;52.994;6.552;2023-06-14T11:00:11;1.85;;;1.00;;
76296;SDS011;65104;52.994;6.552;2023-06-14T11:05:32;1.45;;;0.93;;
76296;SDS011;65104;52.994;6.552;2023-06-14T11:10:41;2.35;;;1.30;;
76296;SDS011;65104;52.994;6.552;2023-06-14T11:13:08;1.35;;;0.80;;
76296;SDS011;65104;52.994;6.552;2023-06-14T11:15:34;1.15;;;0.80;;
76296;SDS011;65104;52.994;6.552;2023-06-14T11:18:05;1.50;;;1.10;;
76296;SDS011;65104;52.994;6.552;2023-06-14T11:20:32;2.20;;;1.08;;
76296;SDS011;65104;52.994;6.552;2023-06-14T11:23:00;1.40;;;1.08;;
76296;SDS011;65104;52.994;6.552;2023-06-14T11:25:26;4.45;;;1.08;;
76296;SDS011;65104;52.994;6.552;2023-06-14T11:27:55;1.10;;;1.00;;
76296;SDS011;65104;52.994;6.552;2023-06-14T11:30:26;1.10;;;0.88;;
76296;SDS011;65104;52.994;6.552;2023-06-14T11:32:52;1.27;;;1.17;;
76296;SDS011;65104;52.994;6.552;2023-06-14T11:35:19;2.17;;;1.17;;
76296;SDS011;65104;52.994;6.552;2023-06-14T11:37:48;2.00;;;1.00;;
76296;SDS011;65104;52.994;6.552;2023-06-14T11:42:40;2.17;;;1.40;;
76296;SDS011;65104;52.994;6.552;2023-06-14T11:45:10;1.38;;;1.10;;
76296;SDS011;65104;52.994;6.552;2023-06-14T11:47:37;1.33;;;1.17;;
76296;SDS011;65104;52.994;6.552;2023-06-14T11:50:07;1.40;;;1.15;;
76296;SDS011;65104;52.994;6.552;2023-06-14T11:52:34;2.08;;;0.93;;
76296;SDS011;65104;52.994;6.552;2023-06-14T11:55:01;1.35;;;1.20;;
76296;SDS011;65104;52.994;6.552;2023-06-14T11:57:30;2.25;;;1.33;;
76296;SDS011;65104;52.994;6.552;2023-06-14T11:59:55;1.40;;;1.30;;
76296;SDS011;65104;52.994;6.552;2023-06-14T12:02:21;1.63;;;1.20;;
76296;SDS011;65104;52.994;6.552;2023-06-14T12:04:47;1.33;;;1.23;;
76296;SDS011;65104;52.994;6.552;2023-06-14T12:07:14;1.02;;;1.00;;
76296;SDS011;65104;52.994;6.552;2023-06-14T12:09:42;1.60;;;1.00;;
76296;SDS011;65104;52.994;6.552;2023-06-14T12:12:34;1.23;;;1.13;;
76296;SDS011;65104;52.994;6.552;2023-06-14T12:15:05;1.58;;;1.20;;
76296;SDS011;65104;52.994;6.552;2023-06-14T12:17:33;1.40;;;1.00;;
76296;SDS011;65104;52.994;6.552;2023-06-14T12:20:04;1.77;;;1.13;;
76296;SDS011;65104;52.994;6.552;2023-06-14T12:22:39;1.30;;;1.20;;
76296;SDS011;65104;52.994;6.552;2023-06-14T12:25:16;1.25;;;1.15;;
76296;SDS011;65104;52.994;6.552;2023-06-14T12:27:56;2.42;;;1.08;;
76296;SDS011;65104;52.994;6.552;2023-06-14T12:30:29;1.40;;;1.30;;
76296;SDS011;65104;52.994;6.552;2023-06-14T12:32:55;1.13;;;0.93;;
76296;SDS011;65104;52.994;6.552;2023-06-14T12:35:20;1.30;;;1.20;;
76296;SDS011;65104;52.994;6.552;2023-06-14T12:37:46;1.58;;;1.00;;
76296;SDS011;65104;52.994;6.552;2023-06-14T12:40:12;1.38;;;1.20;;
76296;SDS011;65104;52.994;6.552;2023-06-14T12:42:38;1.67;;;1.10;;
76296;SDS011;65104;52.994;6.552;2023-06-14T12:45:03;1.50;;;1.30;;
76296;SDS011;65104;52.994;6.552;2023-06-14T12:47:29;1.63;;;1.35;;
76296;SDS011;65104;52.994;6.552;2023-06-14T12:49:55;1.63;;;1.20;;
76296;SDS011;65104;52.994;6.552;2023-06-14T12:52:20;1.67;;;1.55;;
76296;SDS011;65104;52.994;6.552;2023-06-14T12:54:45;1.58;;;1.23;;
76296;SDS011;65104;52.994;6.552;2023-06-14T12:57:11;2.60;;;1.35;;
76296;SDS011;65104;52.994;6.552;2023-06-14T12:59:36;1.33;;;1.20;;
76296;SDS011;65104;52.994;6.552;2023-06-14T13:02:19;1.55;;;1.23;;
76296;SDS011;65104;52.994;6.552;2023-06-14T13:04:49;2.28;;;1.10;;
76296;SDS011;65104;52.994;6.552;2023-06-14T13:07:15;1.27;;;1.02;;
76296;SDS011;65104;52.994;6.552;2023-06-14T13:09:41;1.52;;;1.42;;
76296;SDS011;65104;52.994;6.552;2023-06-14T13:12:07;2.47;;;1.30;;
76296;SDS011;65104;52.994;6.552;2023-06-14T13:14:35;2.17;;;1.25;;
76296;SDS011;65104;52.994;6.552;2023-06-14T13:17:01;1.58;;;1.17;;
76296;SDS011;65104;52.994;6.552;2023-06-14T13:19:26;1.10;;;1.00;;
76296;SDS011;65104;52.994;6.552;2023-06-14T13:21:52;1.98;;;1.10;;
76296;SDS011;65104;52.994;6.552;2023-06-14T13:24:17;1.30;;;1.10;;
76296;SDS011;65104;52.994;6.552;2023-06-14T13:26:43;1.40;;;1.20;;
76296;SDS011;65104;52.994;6.552;2023-06-14T13:29:08;1.10;;;0.98;;
76296;SDS011;65104;52.994;6.552;2023-06-14T13:31:33;2.00;;;1.10;;
76296;SDS011;65104;52.994;6.552;2023-06-14T13:33:59;1.55;;;1.20;;
76296;SDS011;65104;52.994;6.552;2023-06-14T13:36:24;2.00;;;1.20;;
76296;SDS011;65104;52.994;6.552;2023-06-14T13:38:50;1.70;;;1.50;;
76296;SDS011;65104;52.994;6.552;2023-06-14T13:41:17;0.90;;;0.90;;
76296;SDS011;65104;52.994;6.552;2023-06-14T13:43:43;1.38;;;1.10;;
76296;SDS011;65104;52.994;6.552;2023-06-14T13:46:08;1.83;;;1.10;;
76296;SDS011;65104;52.994;6.552;2023-06-14T13:48:33;1.77;;;1.30;;
76296;SDS011;65104;52.994;6.552;2023-06-14T13:50:59;3.67;;;1.33;;
76296;SDS011;65104;52.994;6.552;2023-06-14T13:53:25;1.45;;;1.10;;
76296;SDS011;65104;52.994;6.552;2023-06-14T13:55:51;1.45;;;1.35;;
76296;SDS011;65104;52.994;6.552;2023-06-14T13:58:17;1.52;;;0.98;;
76296;SDS011;65104;52.994;6.552;2023-06-14T14:00:44;1.75;;;1.00;;
76296;SDS011;65104;52.994;6.552;2023-06-14T14:03:09;1.50;;;1.38;;
76296;SDS011;65104;52.994;6.552;2023-06-14T14:05:34;4.90;;;1.60;;
76296;SDS011;65104;52.994;6.552;2023-06-14T14:08:00;2.42;;;1.45;;
76296;SDS011;65104;52.994;6.552;2023-06-14T14:10:25;3.83;;;1.25;;
76296;SDS011;65104;52.994;6.552;2023-06-14T14:12:51;1.73;;;1.10;;
76296;SDS011;65104;52.994;6.552;2023-06-14T14:17:43;1.70;;;1.20;;
76296;SDS011;65104;52.994;6.552;2023-06-14T14:20:08;1.17;;;1.08;;
76296;SDS011;65104;52.994;6.552;2023-06-14T14:22:36;3.45;;;1.30;;
76296;SDS011;65104;52.994;6.552;2023-06-14T14:25:02;1.20;;;1.00;;
76296;SDS011;65104;52.994;6.552;2023-06-14T14:27:27;1.02;;;1.02;;
76296;SDS011;65104;52.994;6.552;2023-06-14T14:29:52;1.75;;;1.40;;
76296;SDS011;65104;52.994;6.552;2023-06-14T14:32:18;1.33;;;1.23;;
76296;SDS011;65104;52.994;6.552;2023-06-14T14:34:43;1.13;;;1.02;;
76296;SDS011;65104;52.994;6.552;2023-06-14T14:37:08;3.35;;;1.17;;
76296;SDS011;65104;52.994;6.552;2023-06-14T14:39:34;1.40;;;1.25;;
76296;SDS011;65104;52.994;6.552;2023-06-14T14:41:59;3.30;;;1.30;;
76296;SDS011;65104;52.994;6.552;2023-06-14T14:44:25;1.65;;;1.30;;
76296;SDS011;65104;52.994;6.552;2023-06-14T14:46:50;2.00;;;1.20;;
76296;SDS011;65104;52.994;6.552;2023-06-14T14:49:15;2.50;;;1.17;;
76296;SDS011;65104;52.994;6.552;2023-06-14T14:51:41;1.45;;;1.30;;
76296;SDS011;65104;52.994;6.552;2023-06-14T14:54:06;2.45;;;1.35;;
76296;SDS011;65104;52.994;6.552;2023-06-14T14:56:32;1.25;;;1.15;;
76296;SDS011;65104;52.994;6.552;2023-06-14T14:58:58;1.23;;;1.02;;
76296;SDS011;65104;52.994;6.552;2023-06-14T15:01:23;1.35;;;1.25;;
76296;SDS011;65104;52.994;6.552;2023-06-14T15:03:49;2.70;;;1.42;;
76296;SDS011;65104;52.994;6.552;2023-06-14T15:06:15;1.73;;;1.40;;
76296;SDS011;65104;52.994;6.552;2023-06-14T15:08:40;1.30;;;1.20;;
76296;SDS011;65104;52.994;6.552;2023-06-14T15:11:05;1.33;;;1.05;;
76296;SDS011;65104;52.994;6.552;2023-06-14T15:13:31;1.65;;;1.55;;
76296;SDS011;65104;52.994;6.552;2023-06-14T15:15:57;2.97;;;1.42;;
76296;SDS011;65104;52.994;6.552;2023-06-14T15:18:22;1.98;;;1.50;;
76296;SDS011;65104;52.994;6.552;2023-06-14T15:20:48;2.58;;;1.40;;
76296;SDS011;65104;52.994;6.552;2023-06-14T15:25:44;1.58;;;1.42;;
76296;SDS011;65104;52.994;6.552;2023-06-14T15:28:10;2.05;;;1.20;;
76296;SDS011;65104;52.994;6.552;2023-06-14T15:30:35;3.70;;;1.55;;
76296;SDS011;65104;52.994;6.552;2023-06-14T15:33:00;1.30;;;1.20;;
76296;SDS011;65104;52.994;6.552;2023-06-14T15:35:26;2.13;;;1.40;;
76296;SDS011;65104;52.994;6.552;2023-06-14T15:37:51;1.30;;;1.20;;
76296;SDS011;65104;52.994;6.552;2023-06-14T15:40:17;1.92;;;1.38;;